createdAt,value
2017-07-06T00:00:20.173Z,93.90
2017-07-06T00:02:48.571Z,93.80
2017-07-06T00:05:16.984Z,94.20
2017-07-06T00:07:44.712Z,94.40
2017-07-06T00:10:13.101Z,94.20
2017-07-06T00:12:41.548Z,94.20
2017-07-06T00:15:09.947Z,94.40
2017-07-06T00:17:38.351Z,94.80
2017-07-06T00:20:06.890Z,94.80
2017-07-06T00:22:35.287Z,95.10
2017-07-06T00:25:03.688Z,95.10
2017-07-06T00:27:32.207Z,95.40
2017-07-06T00:30:01.387Z,95.80
2017-07-06T00:32:30.023Z,95.80
2017-07-06T00:34:58.784Z,95.90
2017-07-06T00:37:27.161Z,96.20
2017-07-06T00:39:55.566Z,96.10
2017-07-06T00:42:23.984Z,95.90
2017-07-06T00:44:52.372Z,96.00
2017-07-06T00:47:20.773Z,96.10
2017-07-06T00:49:49.195Z,96.10
2017-07-06T00:52:17.598Z,96.20
2017-07-06T00:54:46.003Z,96.10
2017-07-06T00:57:15.413Z,96.00
2017-07-06T00:59:43.802Z,96.00
2017-07-06T01:02:12.181Z,96.10
2017-07-06T01:04:40.679Z,96.30
2017-07-06T01:07:09.081Z,96.50
2017-07-06T01:09:37.470Z,96.60
2017-07-06T01:12:06.003Z,96.80
2017-07-06T01:14:34.400Z,96.60
2017-07-06T01:17:02.792Z,96.10
2017-07-06T01:19:30.521Z,96.70
2017-07-06T01:21:59.016Z,96.90
2017-07-06T01:24:27.390Z,96.50
2017-07-06T01:26:55.812Z,96.50
2017-07-06T01:29:24.201Z,96.80
2017-07-06T01:31:52.593Z,97.00
2017-07-06T01:34:21.772Z,97.10
2017-07-06T01:36:50.202Z,97.00
2017-07-06T01:39:18.598Z,96.90
2017-07-06T01:41:47.230Z,97.10
2017-07-06T01:44:16.047Z,97.80
2017-07-06T01:46:44.446Z,97.80
2017-07-06T01:49:12.646Z,97.90
2017-07-06T01:51:41.057Z,97.90
2017-07-06T01:54:09.454Z,97.70
2017-07-06T01:56:37.190Z,97.30
2017-07-06T01:59:06.000Z,97.70
2017-07-06T02:01:34.057Z,97.70
2017-07-06T02:04:02.776Z,97.40
2017-07-06T02:06:31.182Z,96.70
2017-07-06T02:08:59.573Z,97.00
2017-07-06T02:11:27.980Z,96.90
2017-07-06T02:13:56.373Z,96.70
2017-07-06T02:16:24.775Z,96.30
2017-07-06T02:18:53.316Z,97.20
2017-07-06T02:21:21.703Z,97.00
2017-07-06T02:23:50.107Z,97.30
2017-07-06T02:26:19.398Z,97.20
2017-07-06T02:28:47.799Z,97.20
2017-07-06T02:31:16.253Z,97.20
2017-07-06T02:33:44.895Z,97.50
2017-07-06T02:36:14.049Z,97.60
2017-07-06T02:38:42.433Z,97.90
2017-07-06T02:41:11.821Z,97.60
2017-07-06T02:43:39.889Z,97.50
2017-07-06T02:46:08.287Z,97.60
2017-07-06T02:48:37.248Z,97.90
2017-07-06T02:51:05.649Z,97.70
2017-07-06T02:53:34.041Z,97.90
2017-07-06T02:56:02.637Z,97.30
2017-07-06T02:58:31.027Z,97.70
2017-07-06T03:01:00.205Z,99.00
2017-07-06T03:03:28.708Z,99.00
2017-07-06T03:05:57.785Z,99.20
2017-07-06T03:08:26.184Z,99.20
2017-07-06T03:10:55.593Z,99.40
2017-07-06T03:13:24.763Z,99.40
2017-07-06T03:15:53.156Z,99.40
2017-07-06T03:18:21.756Z,99.50
2017-07-06T03:20:50.130Z,99.30
2017-07-06T03:23:19.287Z,99.30
2017-07-06T03:25:47.729Z,99.30
2017-07-06T03:28:15.777Z,99.60
2017-07-06T03:30:44.197Z,99.50
2017-07-06T03:33:13.051Z,99.50
2017-07-06T03:35:41.534Z,99.60
2017-07-06T03:38:09.959Z,99.70
2017-07-06T03:40:38.385Z,99.90
2017-07-06T03:43:06.798Z,99.80
2017-07-06T03:45:35.191Z,99.90
2017-07-06T03:48:03.820Z,99.90
2017-07-06T03:50:32.974Z,99.70
2017-07-06T03:53:01.359Z,99.60
2017-07-06T03:55:29.670Z,99.50
2017-07-06T03:57:58.827Z,99.90
2017-07-06T04:00:27.239Z,99.90
2017-07-06T04:02:56.353Z,99.40
2017-07-06T04:05:24.752Z,99.10
2017-07-06T04:07:52.800Z,99.00
2017-07-06T04:10:21.396Z,98.90
2017-07-06T04:12:49.774Z,99.00
2017-07-06T04:15:18.183Z,99.10
2017-07-06T04:17:46.823Z,99.20
2017-07-06T04:20:15.212Z,99.40
2017-07-06T04:22:43.626Z,99.50
2017-07-06T04:25:12.052Z,99.50
2017-07-06T04:27:41.222Z,99.30
2017-07-06T04:30:09.625Z,99.30
2017-07-06T04:32:38.930Z,98.80
2017-07-06T04:35:08.086Z,98.60
2017-07-06T04:37:36.474Z,98.60
2017-07-06T04:40:04.971Z,98.20
2017-07-06T04:42:34.140Z,97.50
2017-07-06T04:45:01.845Z,97.50
2017-07-06T04:47:30.406Z,97.40
2017-07-06T04:49:59.560Z,97.10
2017-07-06T04:52:27.959Z,97.10
2017-07-06T04:54:56.490Z,96.90
2017-07-06T04:57:24.903Z,96.60
2017-07-06T04:59:53.296Z,96.50
2017-07-06T05:02:22.122Z,96.30
2017-07-06T05:04:55.391Z,96.10
2017-07-06T05:07:24.486Z,96.10
2017-07-06T05:09:52.901Z,95.70
2017-07-06T05:12:21.292Z,95.00
2017-07-06T05:14:49.877Z,94.50
2017-07-06T05:17:18.298Z,94.40
2017-07-06T05:19:46.717Z,94.30
2017-07-06T05:22:15.119Z,94.00
2017-07-06T05:24:43.513Z,93.60
2017-07-06T05:27:11.931Z,93.60
2017-07-06T05:29:41.143Z,93.10
2017-07-06T05:32:09.571Z,93.10
2017-07-06T05:34:38.990Z,93.30
2017-07-06T05:37:07.396Z,93.00
2017-07-06T05:39:35.823Z,92.10
2017-07-06T05:42:04.285Z,92.20
2017-07-06T05:44:32.680Z,92.20
2017-07-06T05:47:01.087Z,92.50
2017-07-06T05:49:29.519Z,91.80
2017-07-06T05:51:57.919Z,90.00
2017-07-06T05:54:26.336Z,90.60
2017-07-06T05:56:54.746Z,89.80
2017-07-06T05:59:23.134Z,87.30
2017-07-06T06:01:51.349Z,85.00
2017-07-06T06:04:19.785Z,84.20
2017-07-06T06:06:48.183Z,84.00
2017-07-06T06:09:16.572Z,83.00
2017-07-06T06:11:45.013Z,83.50
2017-07-06T06:14:13.395Z,83.20
2017-07-06T06:16:41.814Z,84.40
2017-07-06T06:19:10.233Z,83.20
2017-07-06T06:21:39.401Z,81.90
2017-07-06T06:24:07.789Z,81.90
2017-07-06T06:26:37.033Z,79.50
2017-07-06T06:29:05.439Z,79.50
2017-07-06T06:31:33.840Z,79.20
2017-07-06T06:34:02.306Z,79.70
2017-07-06T06:36:30.710Z,80.00
2017-07-06T06:38:59.907Z,76.90
2017-07-06T06:41:29.147Z,76.70
2017-07-06T06:43:57.551Z,76.70
2017-07-06T06:46:25.970Z,75.70
2017-07-06T06:48:54.381Z,74.20
2017-07-06T06:51:22.784Z,73.40
2017-07-06T06:53:51.175Z,72.90
2017-07-06T06:56:19.594Z,73.40
2017-07-06T06:58:48.035Z,71.80
2017-07-06T07:01:16.428Z,71.30
2017-07-06T07:03:45.240Z,70.80
2017-07-06T07:06:13.646Z,70.80
2017-07-06T07:08:42.046Z,69.40
2017-07-06T07:11:10.123Z,69.10
2017-07-06T07:13:38.527Z,72.20
2017-07-06T07:16:07.682Z,68.10
2017-07-06T07:18:36.085Z,68.00
2017-07-06T07:21:04.499Z,68.30
2017-07-06T07:23:32.926Z,66.40
2017-07-06T07:26:01.342Z,67.20
2017-07-06T07:28:29.749Z,64.90
2017-07-06T07:30:58.154Z,66.90
2017-07-06T07:33:26.569Z,68.30
2017-07-06T07:35:55.758Z,69.10
2017-07-06T07:38:24.165Z,69.00
2017-07-06T07:40:52.221Z,68.40
2017-07-06T07:43:21.393Z,69.90
2017-07-06T07:45:49.795Z,69.90
2017-07-06T07:48:18.966Z,66.90
2017-07-06T07:50:47.370Z,66.80
2017-07-06T07:53:16.548Z,67.60
2017-07-06T07:55:45.005Z,67.50
2017-07-06T07:58:13.393Z,67.70
2017-07-06T08:00:41.813Z,72.90
2017-07-06T08:03:11.037Z,73.20
2017-07-06T08:05:39.430Z,73.10
2017-07-06T08:08:07.836Z,74.00
2017-07-06T08:10:36.247Z,72.70
2017-07-06T08:13:04.641Z,76.00
2017-07-06T08:15:33.033Z,77.70
2017-07-06T08:18:01.459Z,78.60
2017-07-06T08:20:30.619Z,81.60
2017-07-06T08:22:59.024Z,81.80
2017-07-06T08:25:27.487Z,80.50
2017-07-06T08:27:55.877Z,83.00
2017-07-06T08:30:24.274Z,80.10
2017-07-06T08:32:53.451Z,81.20
2017-07-06T08:35:21.683Z,81.20
2017-07-06T08:37:50.108Z,80.10
2017-07-06T08:40:18.514Z,79.40
2017-07-06T08:42:47.682Z,78.40
2017-07-06T08:45:16.309Z,78.20
2017-07-06T08:47:44.729Z,75.60
2017-07-06T08:50:13.150Z,76.70
2017-07-06T08:52:42.316Z,75.90
2017-07-06T08:55:10.734Z,75.80
2017-07-06T08:57:39.134Z,75.20
2017-07-06T09:00:07.530Z,72.80
2017-07-06T09:02:35.942Z,69.80
2017-07-06T09:05:04.332Z,69.90
2017-07-06T09:07:33.496Z,70.30
2017-07-06T09:10:01.928Z,70.20
2017-07-06T09:12:30.327Z,65.50
2017-07-06T09:14:58.742Z,65.00
2017-07-06T09:17:27.171Z,61.10
2017-07-06T09:19:55.574Z,60.80
2017-07-06T09:22:24.119Z,64.00
2017-07-06T09:24:53.306Z,66.40
2017-07-06T09:27:22.477Z,59.00
2017-07-06T09:29:50.861Z,58.90
2017-07-06T09:32:19.268Z,56.60
2017-07-06T09:34:47.680Z,55.80
2017-07-06T09:37:16.084Z,54.50
2017-07-06T09:39:44.547Z,53.50
2017-07-06T09:42:12.945Z,51.30
2017-07-06T09:44:41.363Z,50.10
2017-07-06T09:47:09.774Z,49.60
2017-07-06T09:49:38.179Z,50.40
2017-07-06T09:52:06.587Z,50.90
2017-07-06T09:54:35.780Z,52.30
2017-07-06T09:57:04.958Z,49.50
2017-07-06T09:59:33.347Z,49.40
2017-07-06T10:02:01.848Z,49.90
2017-07-06T10:04:31.009Z,50.60
2017-07-06T10:06:59.396Z,50.40
2017-07-06T10:09:27.802Z,52.70
2017-07-06T10:11:56.041Z,55.60
2017-07-06T10:14:24.415Z,57.80
2017-07-06T10:16:52.830Z,57.50
2017-07-06T10:19:21.224Z,56.00
2017-07-06T10:21:49.286Z,54.60
2017-07-06T10:24:17.691Z,54.10
2017-07-06T10:26:46.077Z,52.80
2017-07-06T10:29:14.483Z,54.40
2017-07-06T10:31:42.922Z,53.90
2017-07-06T10:34:11.314Z,53.60
2017-07-06T10:36:39.702Z,54.90
2017-07-06T10:39:08.125Z,54.40
2017-07-06T10:41:37.291Z,57.90
2017-07-06T10:44:05.682Z,57.90
2017-07-06T10:46:34.115Z,57.40
2017-07-06T10:49:02.523Z,59.40
2017-07-06T10:51:30.927Z,59.80
2017-07-06T10:54:00.108Z,60.00
2017-07-06T10:56:28.507Z,60.00
2017-07-06T10:58:57.669Z,56.90
2017-07-06T11:01:26.090Z,56.90
2017-07-06T11:03:54.515Z,59.40
2017-07-06T11:06:22.908Z,59.60
2017-07-06T11:08:51.332Z,58.00
2017-07-06T11:11:19.768Z,58.80
2017-07-06T11:13:48.172Z,56.40
2017-07-06T11:16:17.360Z,58.50
2017-07-06T11:18:45.749Z,58.50
2017-07-06T11:21:14.926Z,57.30
2017-07-06T11:23:43.346Z,57.20
2017-07-06T11:26:11.794Z,56.80
2017-07-06T11:28:40.968Z,57.20
2017-07-06T11:31:09.402Z,57.00
2017-07-06T11:33:37.838Z,56.20
2017-07-06T11:36:07.028Z,55.60
2017-07-06T11:38:35.464Z,55.60
2017-07-06T11:41:03.878Z,56.00
2017-07-06T11:43:31.922Z,57.40
2017-07-06T11:46:00.338Z,55.50
2017-07-06T11:48:28.879Z,54.00
2017-07-06T11:50:57.283Z,55.80
2017-07-06T11:53:25.697Z,55.00
2017-07-06T11:55:54.096Z,52.10
2017-07-06T11:58:22.514Z,51.90
2017-07-06T12:00:50.996Z,51.40
2017-07-06T12:03:19.440Z,48.30
2017-07-06T12:05:47.844Z,49.40
2017-07-06T12:08:16.278Z,49.00
2017-07-06T12:10:44.698Z,51.20
2017-07-06T12:13:13.113Z,54.10
2017-07-06T12:15:42.307Z,54.50
2017-07-06T12:18:10.787Z,54.10
2017-07-06T12:20:39.203Z,54.70
2017-07-06T12:23:07.622Z,55.20
2017-07-06T12:25:36.022Z,56.30
2017-07-06T12:28:04.416Z,54.30
2017-07-06T12:30:33.617Z,55.60
2017-07-06T12:33:02.022Z,55.60
2017-07-06T12:35:30.418Z,54.70
2017-07-06T12:37:58.817Z,54.30
2017-07-06T12:40:27.215Z,54.80
2017-07-06T12:42:55.610Z,54.70
2017-07-06T12:45:24.620Z,55.70
2017-07-06T12:47:52.326Z,55.70
2017-07-06T12:50:20.726Z,56.00
2017-07-06T12:52:49.146Z,55.90
2017-07-06T12:55:17.520Z,56.20
2017-07-06T12:57:45.934Z,55.90
2017-07-06T13:00:14.346Z,56.10
2017-07-06T13:02:42.741Z,56.90
2017-07-06T13:05:11.166Z,57.40
2017-07-06T13:07:39.590Z,57.60
2017-07-06T13:10:08.745Z,58.00
2017-07-06T13:12:37.558Z,57.90
2017-07-06T13:15:05.974Z,58.70
2017-07-06T13:17:34.400Z,58.80
2017-07-06T13:20:02.797Z,58.40
2017-07-06T13:22:31.220Z,59.40
2017-07-06T13:24:59.649Z,59.40
2017-07-06T13:29:56.498Z,59.30
2017-07-06T13:32:25.742Z,72.40
2017-07-06T13:34:54.162Z,72.30
2017-07-06T13:37:22.575Z,77.90
2017-07-06T13:39:50.985Z,88.20
2017-07-06T13:42:19.382Z,92.60
2017-07-06T13:44:47.802Z,93.60
2017-07-06T13:47:16.202Z,95.40
2017-07-06T13:49:44.637Z,96.10
2017-07-06T13:52:12.886Z,95.70
2017-07-06T13:54:41.084Z,95.70
2017-07-06T13:57:09.297Z,95.70
2017-07-06T13:59:38.481Z,97.70
2017-07-06T14:02:06.909Z,97.60
2017-07-06T14:04:35.373Z,99.90
2017-07-06T14:07:03.782Z,99.50
2017-07-06T14:09:32.173Z,99.90
2017-07-06T14:11:59.902Z,99.40
2017-07-06T14:14:28.320Z,99.90
2017-07-06T14:16:56.711Z,99.90
2017-07-06T14:19:25.880Z,99.90
2017-07-06T14:21:54.301Z,99.90
2017-07-06T14:24:23.454Z,99.90
2017-07-06T14:26:51.845Z,99.90
2017-07-06T14:29:20.262Z,99.90
2017-07-06T14:31:49.418Z,99.90
2017-07-06T14:34:17.883Z,99.90
2017-07-06T14:36:46.328Z,99.90
2017-07-06T14:39:14.722Z,99.90
2017-07-06T14:41:43.112Z,99.90
2017-07-06T14:44:11.517Z,99.90
2017-07-06T14:46:39.914Z,99.90
2017-07-06T14:49:09.369Z,99.90
2017-07-06T14:51:38.703Z,99.80
2017-07-06T14:54:07.860Z,99.10
2017-07-06T14:56:36.937Z,98.80
2017-07-06T14:59:05.360Z,97.50
2017-07-06T15:01:33.835Z,97.10
2017-07-06T15:04:02.233Z,98.60
2017-07-06T15:06:30.633Z,98.00
2017-07-06T15:08:59.834Z,96.90
2017-07-06T15:11:28.375Z,96.90
2017-07-06T15:13:56.447Z,96.90
2017-07-06T15:16:24.837Z,97.40
2017-07-06T15:18:53.263Z,98.20
2017-07-06T15:21:21.703Z,97.40
2017-07-06T15:23:50.902Z,97.30
2017-07-06T15:26:20.074Z,97.80
2017-07-06T15:28:48.478Z,97.80
2017-07-06T15:31:17.648Z,97.10
2017-07-06T15:33:46.125Z,97.00
2017-07-06T15:36:14.533Z,99.10
2017-07-06T15:38:43.427Z,98.60
2017-07-06T15:41:11.897Z,98.00
2017-07-06T15:43:40.331Z,97.20
2017-07-06T15:46:08.730Z,96.70
2017-07-06T15:48:37.119Z,95.90
2017-07-06T15:51:05.525Z,95.90
2017-07-06T15:53:33.933Z,96.60
2017-07-06T15:56:02.327Z,97.10
2017-07-06T15:58:30.749Z,97.00
2017-07-06T16:00:59.136Z,96.20
2017-07-06T16:03:28.291Z,96.70
2017-07-06T16:05:56.711Z,96.60
2017-07-06T16:08:25.919Z,94.20
2017-07-06T16:10:55.093Z,95.40
2017-07-06T16:13:23.511Z,95.30
2017-07-06T16:15:51.899Z,94.70
2017-07-06T16:18:20.303Z,95.10
2017-07-06T16:20:48.714Z,95.50
2017-07-06T16:23:17.100Z,95.60
2017-07-06T16:25:46.255Z,95.40
2017-07-06T16:28:14.676Z,95.40
2017-07-06T16:30:43.095Z,95.50
2017-07-06T16:33:11.504Z,95.70
2017-07-06T16:35:39.909Z,94.60
2017-07-06T16:38:08.326Z,94.80
2017-07-06T16:40:36.717Z,95.60
2017-07-06T16:43:05.137Z,95.60
2017-07-06T16:45:33.553Z,94.80
2017-07-06T16:48:01.952Z,95.10
2017-07-06T16:50:30.379Z,95.20
2017-07-06T16:52:58.799Z,96.10
2017-07-06T16:55:27.189Z,96.40
2017-07-06T16:57:55.634Z,96.40
2017-07-06T17:00:24.033Z,96.70
2017-07-06T17:02:52.426Z,96.90
2017-07-06T17:05:20.848Z,96.40
2017-07-06T17:07:50.000Z,97.00
2017-07-06T17:10:18.385Z,96.90
2017-07-06T17:12:46.810Z,96.70
2017-07-06T17:15:15.965Z,97.60
2017-07-06T17:17:44.338Z,97.60
2017-07-06T17:20:12.769Z,97.40
2017-07-06T17:22:41.929Z,95.20
2017-07-06T17:25:10.331Z,95.20
2017-07-06T17:27:38.764Z,95.50
2017-07-06T17:30:07.170Z,96.60
2017-07-06T17:32:35.868Z,97.40
2017-07-06T17:35:05.097Z,95.30
2017-07-06T17:37:33.476Z,95.30
2017-07-06T17:40:01.867Z,95.10
2017-07-06T17:42:30.269Z,95.30
2017-07-06T17:44:58.747Z,96.10
2017-07-06T17:47:27.141Z,95.50
2017-07-06T17:49:55.558Z,96.10
2017-07-06T17:52:23.962Z,95.10
2017-07-06T17:54:52.350Z,95.20
2017-07-06T17:57:21.845Z,95.20
2017-07-06T17:59:50.263Z,95.40
2017-07-06T18:02:18.687Z,95.50
2017-07-06T18:04:47.115Z,95.50
2017-07-06T18:07:15.565Z,94.90
2017-07-06T18:09:44.078Z,94.80
2017-07-06T18:12:12.530Z,94.90
2017-07-06T18:14:40.972Z,95.30
2017-07-06T18:17:09.370Z,95.40
2017-07-06T18:19:37.796Z,95.30
2017-07-06T18:22:06.260Z,94.90
2017-07-06T18:24:34.669Z,95.30
2017-07-06T18:27:03.133Z,95.40
2017-07-06T18:29:31.562Z,95.40
2017-07-06T18:32:00.002Z,95.60
2017-07-06T18:34:28.483Z,95.70
2017-07-06T18:36:57.698Z,95.80
2017-07-06T18:39:26.260Z,95.80
2017-07-06T18:41:54.687Z,96.00
2017-07-06T18:44:23.172Z,96.10
2017-07-06T18:46:51.587Z,96.40
2017-07-06T18:49:20.181Z,96.50
2017-07-06T18:51:48.596Z,96.10
2017-07-06T18:54:17.021Z,95.80
2017-07-06T18:56:45.571Z,95.50
2017-07-06T18:59:14.035Z,95.20
2017-07-06T19:01:42.439Z,95.10
2017-07-06T19:04:10.878Z,94.70
2017-07-06T19:06:40.052Z,94.50
2017-07-06T19:09:08.437Z,94.50
2017-07-06T19:11:38.314Z,94.20
2017-07-06T19:14:06.717Z,94.10
2017-07-06T19:16:35.122Z,93.90
2017-07-06T19:19:10.197Z,94.00
2017-07-06T19:21:38.602Z,94.00
2017-07-06T19:24:07.046Z,94.10
2017-07-06T19:26:35.460Z,94.10
2017-07-06T19:29:03.861Z,94.70
2017-07-06T19:31:34.054Z,94.80
2017-07-06T19:34:02.448Z,95.40
2017-07-06T19:36:31.618Z,96.00
2017-07-06T19:39:00.038Z,96.00
2017-07-06T19:41:28.423Z,95.90
2017-07-06T19:43:57.592Z,95.90
2017-07-06T19:46:26.136Z,95.90
2017-07-06T19:48:54.645Z,96.30
2017-07-06T19:51:23.841Z,97.00
2017-07-06T19:53:52.262Z,97.00
2017-07-06T19:56:20.650Z,96.70
2017-07-06T19:58:49.056Z,96.70
2017-07-06T20:01:17.620Z,96.30
2017-07-06T20:03:46.015Z,96.60
2017-07-06T20:06:14.407Z,96.70
2017-07-06T20:08:42.880Z,97.10
2017-07-06T20:11:11.289Z,96.30
2017-07-06T20:13:40.512Z,97.10
2017-07-06T20:16:08.941Z,96.80
2017-07-06T20:18:37.349Z,96.20
2017-07-06T20:21:06.558Z,94.60
2017-07-06T20:23:34.992Z,94.60
2017-07-06T20:26:03.365Z,94.70
2017-07-06T20:28:32.741Z,92.90
2017-07-06T20:31:01.173Z,94.20
2017-07-06T20:33:29.615Z,93.90
2017-07-06T20:35:58.014Z,93.40
2017-07-06T20:38:26.456Z,93.00
2017-07-06T20:40:54.948Z,92.60
2017-07-06T20:43:23.348Z,92.90
2017-07-06T20:45:51.782Z,92.90
2017-07-06T20:48:20.186Z,92.20
2017-07-06T20:50:48.599Z,91.40
2017-07-06T20:53:17.031Z,91.10
2017-07-06T20:55:45.438Z,90.90
2017-07-06T20:58:13.842Z,90.80
2017-07-06T21:00:42.278Z,90.80
2017-07-06T21:03:10.673Z,90.80
2017-07-06T21:05:39.087Z,90.80
2017-07-06T21:08:08.283Z,90.80
2017-07-06T21:10:36.671Z,90.70
2017-07-06T21:13:05.064Z,91.20
2017-07-06T21:15:33.482Z,91.30
2017-07-06T21:18:01.931Z,91.40
2017-07-06T21:20:30.321Z,91.50
2017-07-06T21:22:58.743Z,91.50
2017-07-06T21:25:27.140Z,91.50
2017-07-06T21:27:55.641Z,91.40
2017-07-06T21:30:24.120Z,91.20
2017-07-06T21:32:52.536Z,91.00
2017-07-06T21:35:20.959Z,90.80
2017-07-06T21:37:49.469Z,90.80
2017-07-06T21:40:17.962Z,90.60
2017-07-06T21:42:46.364Z,90.50
2017-07-06T21:45:15.865Z,90.00
2017-07-06T21:47:44.299Z,89.70
2017-07-06T21:50:12.802Z,89.40
2017-07-06T21:52:41.216Z,89.20
2017-07-06T21:55:09.621Z,89.20
2017-07-06T21:57:38.024Z,89.20
2017-07-06T22:00:06.442Z,89.20
2017-07-06T22:02:34.847Z,89.50
2017-07-06T22:05:03.264Z,89.60
2017-07-06T22:07:31.714Z,89.90
2017-07-06T22:10:00.113Z,90.20
2017-07-06T22:12:28.610Z,90.20
2017-07-06T22:14:57.602Z,90.30
2017-07-06T22:17:26.018Z,90.20
2017-07-06T22:19:54.421Z,89.60
2017-07-06T22:22:22.860Z,89.20
2017-07-06T22:24:51.250Z,89.20
2017-07-06T22:27:19.804Z,88.80
2017-07-06T22:29:48.254Z,88.40
2017-07-06T22:32:16.644Z,87.90
2017-07-06T22:34:45.048Z,88.90
2017-07-06T22:37:13.482Z,90.10
2017-07-06T22:39:41.868Z,90.50
2017-07-06T22:42:10.257Z,91.30
2017-07-06T22:44:38.722Z,91.10
2017-07-06T22:47:07.099Z,90.90
2017-07-06T22:49:35.517Z,90.60
2017-07-06T22:52:04.162Z,90.80
2017-07-06T22:54:32.552Z,90.60
2017-07-06T22:57:01.775Z,91.00
2017-07-06T22:59:30.201Z,91.30
2017-07-06T23:02:00.077Z,91.20
2017-07-06T23:04:28.533Z,91.20
2017-07-06T23:06:56.947Z,92.00
2017-07-06T23:09:25.331Z,92.20
2017-07-06T23:11:53.719Z,93.00
2017-07-06T23:14:22.138Z,93.60
2017-07-06T23:16:50.642Z,93.60
2017-07-06T23:19:19.038Z,93.60
2017-07-06T23:21:47.457Z,93.60
2017-07-06T23:24:15.856Z,93.50
2017-07-06T23:26:44.277Z,93.80
2017-07-06T23:29:12.839Z,94.00
2017-07-06T23:31:41.295Z,94.10
2017-07-06T23:34:09.709Z,94.10
2017-07-06T23:36:38.156Z,95.30
2017-07-06T23:39:06.570Z,95.50
2017-07-06T23:41:35.296Z,95.00
2017-07-06T23:44:03.783Z,95.30
2017-07-06T23:46:32.254Z,95.70
2017-07-06T23:49:01.413Z,95.80
2017-07-06T23:51:29.878Z,95.80
2017-07-06T23:53:58.268Z,95.90
2017-07-06T23:56:26.642Z,95.60
2017-07-06T23:58:55.106Z,95.70
